Terminal Aerodrome Forecast
Issued by NWS

Home | Current Version | Previous Version | Text Only | Print | Product List | Glossary On
Versions: 1 2 3 4 5 6 7 8 9 10 11 12 13 14 15 16
000
FTAK31 PAJN 241100
TAFAKT
TAF
PAKT 241134Z 2412/2512 30006KT P6SM SKC
     FM241800 32010KT P6SM SKC
     FM250200 32005KT P6SM SKC
     FM250600 31005KT P6SM SCT100
      AMD LTD TO CLD VIS AND WIND 2412/2415=

USA.gov is the U.S. government's official web portal to all federal, state and local government web resources and services.